createdAt,value
2016-09-28T00:00:38.324Z,0
2016-09-28T00:01:37.985Z,0
2016-09-28T00:02:38.003Z,0
2016-09-28T00:03:38.045Z,0
2016-09-28T00:04:38.412Z,0
2016-09-28T00:05:37.753Z,0
2016-09-28T00:06:38.083Z,0
2016-09-28T00:07:38.113Z,0
2016-09-28T00:08:38.445Z,0
2016-09-28T00:09:38.195Z,0
2016-09-28T00:10:37.942Z,0
2016-09-28T00:11:38.544Z,0
2016-09-28T00:12:38.225Z,0
2016-09-28T00:13:37.933Z,0
2016-09-28T00:14:37.935Z,0
2016-09-28T00:15:38.578Z,0
2016-09-28T00:16:38.590Z,0
2016-09-28T00:17:38.627Z,0
2016-09-28T00:18:38.630Z,0
2016-09-28T00:19:38.354Z,0
2016-09-28T00:20:38.071Z,0
2016-09-28T00:21:38.719Z,0
2016-09-28T00:22:38.848Z,0
2016-09-28T00:23:38.448Z,0
2016-09-28T00:24:38.444Z,0
2016-09-28T00:25:38.561Z,0
2016-09-28T00:26:39.273Z,0
2016-09-28T00:27:38.524Z,0
2016-09-28T00:28:38.529Z,0
2016-09-28T00:29:38.560Z,0
2016-09-28T00:30:38.675Z,0
2016-09-28T00:31:38.593Z,0
2016-09-28T00:32:38.614Z,0
2016-09-28T00:33:38.947Z,0
2016-09-28T00:34:38.345Z,0
2016-09-28T00:35:38.792Z,0
2016-09-28T00:36:38.696Z,0
2016-09-28T00:37:38.763Z,0
2016-09-28T00:38:39.105Z,0
2016-09-28T00:39:39.061Z,0
2016-09-28T00:40:38.483Z,0
2016-09-28T00:41:38.806Z,0
2016-09-28T00:42:38.831Z,0
2016-09-28T00:43:38.955Z,0
2016-09-28T00:44:38.850Z,0
2016-09-28T00:45:39.203Z,0
2016-09-28T00:46:38.978Z,0
2016-09-28T00:47:38.638Z,0
2016-09-28T00:48:39.085Z,0
2016-09-28T00:49:39.277Z,0
2016-09-28T00:50:39.293Z,0
2016-09-28T00:51:39.129Z,0
2016-09-28T00:52:39.045Z,0
2016-09-28T00:53:39.120Z,0
2016-09-28T00:54:39.073Z,0
2016-09-28T00:55:39.412Z,0
2016-09-28T00:56:39.502Z,0
2016-09-28T00:57:39.147Z,0
2016-09-28T00:58:39.158Z,0
2016-09-28T00:59:39.504Z,0
2016-09-28T01:00:39.197Z,0
2016-09-28T01:01:39.636Z,0
2016-09-28T01:02:39.252Z,0
2016-09-28T01:03:38.969Z,0
2016-09-28T01:04:39.294Z,0
2016-09-28T01:05:39.043Z,0
2016-09-28T01:06:39.019Z,0
2016-09-28T01:07:39.041Z,0
2016-09-28T01:08:39.082Z,0
2016-09-28T01:09:39.710Z,0
2016-09-28T01:10:39.410Z,0
2016-09-28T01:11:39.491Z,0
2016-09-28T01:12:39.575Z,0
2016-09-28T01:13:39.478Z,0
2016-09-28T01:14:39.538Z,0
2016-09-28T01:15:39.212Z,0
2016-09-28T01:16:39.635Z,0
2016-09-28T01:17:39.570Z,0
2016-09-28T01:18:39.272Z,0
2016-09-28T01:19:39.296Z,0
2016-09-28T01:20:39.294Z,0
2016-09-28T01:21:39.651Z,0
2016-09-28T01:22:39.657Z,0
2016-09-28T01:23:40.009Z,0
2016-09-28T01:24:39.407Z,0
2016-09-28T01:25:39.408Z,0
2016-09-28T01:26:39.749Z,0
2016-09-28T01:27:40.080Z,0
2016-09-28T01:28:39.774Z,0
2016-09-28T01:29:40.133Z,0
2016-09-28T01:30:39.828Z,0
2016-09-28T01:31:39.861Z,0
2016-09-28T01:32:40.190Z,0
2016-09-28T01:33:39.895Z,0
2016-09-28T01:34:39.978Z,0
2016-09-28T01:35:39.637Z,0
2016-09-28T01:36:40.051Z,0
2016-09-28T01:37:40.409Z,0
2016-09-28T01:38:40.022Z,0
2016-09-28T01:39:40.024Z,0
2016-09-28T01:40:40.450Z,0
2016-09-28T01:41:40.055Z,0
2016-09-28T01:42:39.470Z,0
2016-09-28T01:43:39.814Z,0
2016-09-28T01:44:40.215Z,0
2016-09-28T01:45:40.469Z,0
2016-09-28T01:46:40.249Z,0
2016-09-28T01:47:39.890Z,0
2016-09-28T01:48:40.625Z,0
2016-09-28T01:49:40.250Z,0
2016-09-28T01:50:40.281Z,0
2016-09-28T01:51:40.349Z,0
2016-09-28T01:52:40.618Z,0
2016-09-28T01:53:40.064Z,0
2016-09-28T01:54:40.075Z,0
2016-09-28T01:55:40.382Z,0
2016-09-28T01:56:40.396Z,0
2016-09-28T01:57:40.739Z,0
2016-09-28T01:58:40.554Z,0
2016-09-28T01:59:40.579Z,0
2016-09-28T02:00:40.554Z,0
2016-09-28T02:01:40.586Z,0
2016-09-28T02:02:40.857Z,0
2016-09-28T02:03:40.691Z,0
2016-09-28T02:04:40.584Z,0
2016-09-28T02:05:40.308Z,0
2016-09-28T02:06:40.623Z,0
2016-09-28T02:07:40.971Z,0
2016-09-28T02:08:40.686Z,0
2016-09-28T02:09:40.988Z,0
2016-09-28T02:10:41.032Z,0
2016-09-28T02:11:40.548Z,0
2016-09-28T02:12:40.863Z,0
2016-09-28T02:13:40.769Z,0
2016-09-28T02:14:41.121Z,0
2016-09-28T02:15:41.153Z,0
2016-09-28T02:16:40.911Z,0
2016-09-28T02:17:40.638Z,0
2016-09-28T02:18:40.968Z,0
2016-09-28T02:19:40.996Z,0
2016-09-28T02:20:41.248Z,0
2016-09-28T02:21:40.968Z,0
2016-09-28T02:22:41.289Z,0
2016-09-28T02:23:41.314Z,0
2016-09-28T02:24:41.323Z,0
2016-09-28T02:25:41.446Z,0
2016-09-28T02:26:40.906Z,0
2016-09-28T02:27:40.773Z,0
2016-09-28T02:28:41.118Z,0
2016-09-28T02:29:41.443Z,0
2016-09-28T02:30:41.459Z,0
2016-09-28T02:31:41.304Z,0
2016-09-28T02:32:41.500Z,0
2016-09-28T02:33:41.246Z,0
2016-09-28T02:34:41.552Z,0
2016-09-28T02:35:41.056Z,0
2016-09-28T02:36:41.330Z,0
2016-09-28T02:37:41.712Z,0
2016-09-28T02:38:41.653Z,0
2016-09-28T02:39:41.357Z,0
2016-09-28T02:40:41.669Z,0
2016-09-28T02:41:41.457Z,0
2016-09-28T02:42:41.419Z,0
2016-09-28T02:43:41.452Z,0
2016-09-28T02:44:41.462Z,0
2016-09-28T02:45:41.785Z,0
2016-09-28T02:46:41.919Z,0
2016-09-28T02:47:41.217Z,0
2016-09-28T02:48:41.307Z,0
2016-09-28T02:49:41.945Z,0
2016-09-28T02:50:42.005Z,0
2016-09-28T02:51:41.669Z,0
2016-09-28T02:52:41.325Z,0
2016-09-28T02:53:41.802Z,0
2016-09-28T02:54:42.003Z,0
2016-09-28T02:55:41.825Z,0
2016-09-28T02:56:41.840Z,0
2016-09-28T02:57:42.063Z,0
2016-09-28T02:58:41.469Z,0
2016-09-28T02:59:41.779Z,0
2016-09-28T03:00:42.132Z,0
2016-09-28T03:01:42.028Z,0
2016-09-28T03:02:41.759Z,0
2016-09-28T03:03:42.092Z,0
2016-09-28T03:04:41.917Z,0
2016-09-28T03:05:42.159Z,0
2016-09-28T03:06:42.586Z,0
2016-09-28T03:07:42.455Z,0
2016-09-28T03:08:42.197Z,0
2016-09-28T03:09:42.538Z,0
2016-09-28T03:10:41.818Z,0
2016-09-28T03:11:42.106Z,0
2016-09-28T03:12:41.823Z,0
2016-09-28T03:13:41.839Z,0
2016-09-28T03:14:42.138Z,0
2016-09-28T03:15:41.849Z,0
2016-09-28T03:16:42.515Z,0
2016-09-28T03:17:41.910Z,0
2016-09-28T03:18:42.228Z,0
2016-09-28T03:19:42.259Z,0
2016-09-28T03:20:42.359Z,0
2016-09-28T03:21:42.300Z,0
2016-09-28T03:22:42.439Z,0
2016-09-28T03:23:42.631Z,0
2016-09-28T03:24:42.669Z,0
2016-09-28T03:25:42.717Z,0
2016-09-28T03:26:42.449Z,0
2016-09-28T03:27:42.729Z,0
2016-09-28T03:28:42.438Z,0
2016-09-28T03:29:42.783Z,0
2016-09-28T03:30:42.800Z,0
2016-09-28T03:31:42.576Z,0
2016-09-28T03:32:42.848Z,0
2016-09-28T03:33:42.562Z,0
2016-09-28T03:34:42.251Z,0
2016-09-28T03:35:42.274Z,0
2016-09-28T03:36:42.945Z,0
2016-09-28T03:37:43.043Z,0
2016-09-28T03:38:43.026Z,0
2016-09-28T03:39:42.372Z,0
2016-09-28T03:40:42.714Z,0
2016-09-28T03:41:42.720Z,0
2016-09-28T03:42:43.059Z,0
2016-09-28T03:43:42.769Z,0
2016-09-28T03:44:43.091Z,0
2016-09-28T03:45:43.105Z,0
2016-09-28T03:46:43.207Z,0
2016-09-28T03:47:42.928Z,0
2016-09-28T03:48:42.973Z,0
2016-09-28T03:49:42.649Z,0
2016-09-28T03:50:42.920Z,0
2016-09-28T03:51:43.299Z,0
2016-09-28T03:52:43.045Z,0
2016-09-28T03:53:43.322Z,0
2016-09-28T03:54:43.332Z,0
2016-09-28T03:55:43.020Z,0
2016-09-28T03:56:43.370Z,0
2016-09-28T03:57:43.070Z,0
2016-09-28T03:58:42.840Z,0
2016-09-28T03:59:43.449Z,0
2016-09-28T04:00:43.520Z,0
2016-09-28T04:01:43.209Z,0
2016-09-28T04:02:43.230Z,0
2016-09-28T04:03:42.911Z,0
2016-09-28T04:04:43.239Z,0
2016-09-28T04:05:43.558Z,0
2016-09-28T04:06:43.588Z,0
2016-09-28T04:07:43.292Z,0
2016-09-28T04:08:42.997Z,0
2016-09-28T04:09:43.465Z,0
2016-09-28T04:10:43.673Z,0
2016-09-28T04:11:43.464Z,0
2016-09-28T04:12:43.401Z,0
2016-09-28T04:13:43.458Z,0
2016-09-28T04:14:43.451Z,0
2016-09-28T04:15:43.171Z,0
2016-09-28T04:16:43.801Z,0
2016-09-28T04:17:43.519Z,0
2016-09-28T04:18:43.532Z,0
2016-09-28T04:19:43.263Z,0
2016-09-28T04:20:43.592Z,0
2016-09-28T04:21:43.933Z,0
2016-09-28T04:22:43.960Z,0
2016-09-28T04:23:43.655Z,0
2016-09-28T04:24:44.000Z,0
2016-09-28T04:25:43.689Z,0
2016-09-28T04:26:43.471Z,0
2016-09-28T04:27:43.757Z,0
2016-09-28T04:28:44.070Z,0
2016-09-28T04:29:43.477Z,0
2016-09-28T04:30:43.806Z,0
2016-09-28T04:31:44.133Z,0
2016-09-28T04:32:43.856Z,0
2016-09-28T04:33:43.970Z,0
2016-09-28T04:34:44.210Z,0
2016-09-28T04:35:43.938Z,0
2016-09-28T04:36:43.950Z,0
2016-09-28T04:37:43.978Z,0
2016-09-28T04:38:44.300Z,0
2016-09-28T04:39:43.705Z,0
2016-09-28T04:40:44.031Z,0
2016-09-28T04:41:44.092Z,0
2016-09-28T04:42:44.586Z,0
2016-09-28T04:43:44.111Z,0
2016-09-28T04:44:44.111Z,0
2016-09-28T04:45:44.484Z,0
2016-09-28T04:46:44.531Z,0
2016-09-28T04:47:43.892Z,0
2016-09-28T04:48:43.909Z,0
2016-09-28T04:49:44.246Z,0
2016-09-28T04:50:44.589Z,0
2016-09-28T04:51:44.650Z,0
2016-09-28T04:52:44.309Z,4
2016-09-28T04:53:44.324Z,4
2016-09-28T04:54:44.672Z,4
2016-09-28T04:55:44.373Z,4
2016-09-28T04:56:44.070Z,4
2016-09-28T04:57:44.808Z,4
2016-09-28T04:58:44.833Z,8
2016-09-28T04:59:44.800Z,4
2016-09-28T05:00:44.511Z,8
2016-09-28T05:01:44.566Z,12
2016-09-28T05:02:44.843Z,60
2016-09-28T05:03:43.943Z,64
2016-09-28T05:04:44.586Z,68
2016-09-28T05:05:44.920Z,72
2016-09-28T05:06:44.685Z,72
2016-09-28T05:07:44.986Z,76
2016-09-28T05:08:44.804Z,84
2016-09-28T05:09:45.045Z,88
2016-09-28T05:10:44.718Z,44
2016-09-28T05:11:45.137Z,52
2016-09-28T05:12:45.086Z,60
2016-09-28T05:13:45.131Z,76
2016-09-28T05:14:44.822Z,84
2016-09-28T05:15:45.133Z,84
2016-09-28T05:16:44.956Z,84
2016-09-28T05:17:45.190Z,72
2016-09-28T05:18:44.904Z,72
2016-09-28T05:19:45.373Z,60
2016-09-28T05:20:45.548Z,68
2016-09-28T05:21:45.070Z,72
2016-09-28T05:22:45.350Z,92
2016-09-28T05:23:45.401Z,108
2016-09-28T05:24:45.336Z,132
2016-09-28T05:25:44.740Z,152
2016-09-28T05:26:45.379Z,172
2016-09-28T05:27:45.102Z,180
2016-09-28T05:28:45.463Z,200
2016-09-28T05:29:45.459Z,216
2016-09-28T05:30:45.468Z,224
2016-09-28T05:31:45.205Z,224
2016-09-28T05:32:45.782Z,268
2016-09-28T05:33:45.546Z,332
2016-09-28T05:34:45.353Z,368
2016-09-28T05:35:45.748Z,404
2016-09-28T05:36:44.987Z,424
2016-09-28T05:37:45.318Z,448
2016-09-28T05:38:45.371Z,424
2016-09-28T05:39:45.859Z,392
2016-09-28T05:40:45.808Z,384
2016-09-28T05:41:45.787Z,396
2016-09-28T05:42:45.742Z,412
2016-09-28T05:43:45.547Z,408
2016-09-28T05:44:45.498Z,400
2016-09-28T05:45:45.858Z,436
2016-09-28T05:46:45.954Z,544
2016-09-28T05:47:45.968Z,640
2016-09-28T05:48:45.999Z,700
2016-09-28T05:49:45.600Z,680
2016-09-28T05:50:46.042Z,688
2016-09-28T05:51:45.635Z,792
2016-09-28T05:52:45.920Z,848
2016-09-28T05:53:45.979Z,864
2016-09-28T05:54:45.869Z,920
2016-09-28T05:55:45.409Z,1020
2016-09-28T05:56:46.107Z,1068
2016-09-28T05:57:45.936Z,1148
2016-09-28T05:58:45.487Z,1204
2016-09-28T05:59:46.129Z,1248
2016-09-28T06:00:45.530Z,1416
2016-09-28T06:01:45.875Z,1700
2016-09-28T06:02:45.880Z,2012
2016-09-28T06:03:46.208Z,2884
2016-09-28T06:04:46.251Z,4136
2016-09-28T06:05:46.090Z,4048
2016-09-28T06:06:45.972Z,2900
2016-09-28T06:07:45.720Z,2616
2016-09-28T06:08:46.400Z,2916
2016-09-28T06:09:46.191Z,3188
2016-09-28T06:10:45.760Z,3724
2016-09-28T06:11:46.412Z,3080
2016-09-28T06:12:46.109Z,2808
2016-09-28T06:13:46.448Z,2264
2016-09-28T06:14:46.476Z,1884
2016-09-28T06:15:46.050Z,2080
2016-09-28T06:16:46.261Z,2200
2016-09-28T06:17:46.013Z,3096
2016-09-28T06:18:46.059Z,3696
2016-09-28T06:19:46.632Z,3028
2016-09-28T06:20:46.058Z,4252
2016-09-28T06:21:46.701Z,4056
2016-09-28T06:22:46.340Z,3492
2016-09-28T06:23:46.429Z,3692
2016-09-28T06:24:46.730Z,3896
2016-09-28T06:25:46.729Z,3568
2016-09-28T06:26:46.520Z,3588
2016-09-28T06:27:46.501Z,2732
2016-09-28T06:28:46.518Z,2996
2016-09-28T06:29:46.529Z,3312
2016-09-28T06:30:46.313Z,3592
2016-09-28T06:31:46.562Z,4700
2016-09-28T06:32:46.615Z,3468
2016-09-28T06:33:46.598Z,5172
2016-09-28T06:34:46.689Z,7792
2016-09-28T06:35:46.340Z,6724
2016-09-28T06:36:46.977Z,14464
2016-09-28T06:37:46.810Z,15008
2016-09-28T06:38:46.801Z,6196
2016-09-28T06:39:46.747Z,14560
2016-09-28T06:40:47.068Z,16128
2016-09-28T06:41:46.910Z,12612
2016-09-28T06:42:46.602Z,8252
2016-09-28T06:43:46.863Z,13568
2016-09-28T06:44:47.267Z,13888
2016-09-28T06:45:47.195Z,7372
2016-09-28T06:46:47.212Z,9248
2016-09-28T06:47:46.919Z,8532
2016-09-28T06:48:47.278Z,8836
2016-09-28T06:49:46.987Z,9824
2016-09-28T06:50:47.313Z,8532
2016-09-28T06:51:47.179Z,6120
2016-09-28T06:52:47.479Z,5508
2016-09-28T06:53:47.100Z,4028
2016-09-28T06:54:46.823Z,3872
2016-09-28T06:55:47.149Z,3468
2016-09-28T06:56:47.569Z,5128
2016-09-28T06:57:47.501Z,5216
2016-09-28T06:58:46.911Z,4816
2016-09-28T06:59:47.529Z,3700
2016-09-28T07:00:47.616Z,3456
2016-09-28T07:01:47.591Z,4072
2016-09-28T07:02:47.298Z,4860
2016-09-28T07:03:47.330Z,5128
2016-09-28T07:04:47.379Z,5296
2016-09-28T07:05:47.379Z,5136
2016-09-28T07:06:47.551Z,4036
2016-09-28T07:07:47.129Z,4352
2016-09-28T07:08:47.762Z,5004
2016-09-28T07:09:47.480Z,4672
2016-09-28T07:10:47.813Z,6384
2016-09-28T07:11:47.221Z,7596
2016-09-28T07:12:47.548Z,4840
2016-09-28T07:13:47.579Z,6184
2016-09-28T07:14:47.285Z,18592
2016-09-28T07:15:47.306Z,6300
2016-09-28T07:16:47.968Z,5568
2016-09-28T07:17:47.731Z,4896
2016-09-28T07:18:48.001Z,5332
2016-09-28T07:19:48.030Z,5428
2016-09-28T07:20:48.053Z,4812
2016-09-28T07:21:48.081Z,4896
2016-09-28T07:22:47.786Z,4836
2016-09-28T07:23:47.812Z,5956
2016-09-28T07:24:47.920Z,5832
2016-09-28T07:25:48.167Z,5188
2016-09-28T07:26:48.325Z,5016
2016-09-28T07:27:48.232Z,7184
2016-09-28T07:28:47.942Z,7044
2016-09-28T07:29:47.670Z,8396
2016-09-28T07:30:47.991Z,6876
2016-09-28T07:31:48.007Z,5248
2016-09-28T07:32:48.347Z,5476
2016-09-28T07:33:48.379Z,6496
2016-09-28T07:34:48.408Z,7912
2016-09-28T07:35:48.160Z,6248
2016-09-28T07:36:48.472Z,5768
2016-09-28T07:37:47.855Z,5832
2016-09-28T07:38:48.489Z,7260
2016-09-28T07:39:48.220Z,7904
2016-09-28T07:40:48.249Z,6948
2016-09-28T07:41:48.564Z,6028
2016-09-28T07:42:48.296Z,7884
2016-09-28T07:43:48.002Z,9572
2016-09-28T07:44:48.341Z,9408
2016-09-28T07:45:48.362Z,6844
2016-09-28T07:46:49.111Z,6404
2016-09-28T07:47:48.427Z,6528
2016-09-28T07:48:49.080Z,8116
2016-09-28T07:49:48.588Z,8300
2016-09-28T07:50:49.100Z,9688
2016-09-28T07:51:48.202Z,9452
2016-09-28T07:52:48.232Z,9148
2016-09-28T07:53:48.981Z,11100
2016-09-28T07:54:48.772Z,9708
2016-09-28T07:55:48.922Z,8504
2016-09-28T07:56:49.069Z,7404
2016-09-28T07:57:48.380Z,7352
2016-09-28T07:58:49.029Z,6512
2016-09-28T07:59:48.411Z,6648
2016-09-28T08:00:49.048Z,6576
2016-09-28T08:01:49.202Z,6180
2016-09-28T08:02:48.975Z,5876
2016-09-28T08:03:48.800Z,5672
2016-09-28T08:04:48.986Z,5348
2016-09-28T08:05:48.853Z,5436
2016-09-28T08:06:49.192Z,5144
2016-09-28T08:07:48.911Z,5724
2016-09-28T08:08:48.991Z,6612
2016-09-28T08:09:48.640Z,7136
2016-09-28T08:10:48.979Z,6464
2016-09-28T08:11:49.179Z,6576
2016-09-28T08:12:49.122Z,7008
2016-09-28T08:13:49.203Z,7084
2016-09-28T08:14:49.491Z,8160
2016-09-28T08:15:49.231Z,7000
2016-09-28T08:16:49.423Z,6056
2016-09-28T08:17:49.143Z,6428
2016-09-28T08:18:49.178Z,6480
2016-09-28T08:19:49.218Z,7932
2016-09-28T08:20:49.070Z,8128
2016-09-28T08:21:48.953Z,8692
2016-09-28T08:22:49.283Z,7596
2016-09-28T08:23:49.703Z,8284
2016-09-28T08:24:49.662Z,7488
2016-09-28T08:25:49.387Z,8900
2016-09-28T08:26:49.389Z,8860
2016-09-28T08:27:49.094Z,7196
2016-09-28T08:28:49.749Z,7156
2016-09-28T08:29:49.452Z,7544
2016-09-28T08:30:49.612Z,6296
2016-09-28T08:31:49.379Z,5572
2016-09-28T08:32:49.538Z,6296
2016-09-28T08:33:49.233Z,6804
2016-09-28T08:34:49.603Z,6496
2016-09-28T08:35:50.002Z,6692
2016-09-28T08:36:49.644Z,6908
2016-09-28T08:37:49.986Z,6992
2016-09-28T08:38:49.366Z,6444
2016-09-28T08:39:49.990Z,6728
2016-09-28T08:40:49.432Z,7480
2016-09-28T08:41:49.774Z,6676
2016-09-28T08:42:49.791Z,7040
2016-09-28T08:43:49.922Z,7044
2016-09-28T08:44:49.831Z,7280
2016-09-28T08:45:50.263Z,7852
2016-09-28T08:46:49.895Z,7424
2016-09-28T08:47:50.221Z,7688
2016-09-28T08:48:49.919Z,8016
2016-09-28T08:49:50.265Z,7656
2016-09-28T08:50:50.273Z,9064
2016-09-28T08:51:49.689Z,9120
2016-09-28T08:52:50.346Z,7380
2016-09-28T08:53:50.362Z,7008
2016-09-28T08:54:50.515Z,7592
2016-09-28T08:55:50.107Z,7944
2016-09-28T08:56:50.555Z,7740
2016-09-28T08:57:50.151Z,9352
2016-09-28T08:58:50.178Z,8972
2016-09-28T08:59:50.203Z,8260
2016-09-28T09:00:50.542Z,8088
2016-09-28T09:01:50.629Z,9860
2016-09-28T09:02:49.977Z,10924
2016-09-28T09:03:50.300Z,11408
2016-09-28T09:04:50.637Z,9988
2016-09-28T09:05:50.034Z,9404
2016-09-28T09:06:50.780Z,8164
2016-09-28T09:07:50.088Z,8836
2016-09-28T09:08:50.762Z,9008
2016-09-28T09:09:50.522Z,9936
2016-09-28T09:10:50.909Z,10388
2016-09-28T09:11:50.513Z,8748
2016-09-28T09:12:50.839Z,8340
2016-09-28T09:13:50.872Z,8820
2016-09-28T09:14:50.901Z,8808
2016-09-28T09:15:50.918Z,8280
2016-09-28T09:16:50.644Z,8136
2016-09-28T09:17:51.068Z,7672
2016-09-28T09:18:51.561Z,7596
2016-09-28T09:19:51.033Z,7648
2016-09-28T09:20:50.726Z,7688
2016-09-28T09:21:50.769Z,7716
2016-09-28T09:22:51.133Z,6980
2016-09-28T09:23:50.822Z,7132
2016-09-28T09:24:50.895Z,7064
2016-09-28T09:25:51.175Z,7136
2016-09-28T09:26:51.202Z,7616
2016-09-28T09:27:50.935Z,7308
2016-09-28T09:28:51.277Z,7244
2016-09-28T09:29:51.050Z,7216
2016-09-28T09:30:51.306Z,7412
2016-09-28T09:31:50.710Z,7524
2016-09-28T09:32:51.348Z,7616
2016-09-28T09:33:51.069Z,8032
2016-09-28T09:34:51.401Z,7916
2016-09-28T09:35:51.113Z,8012
2016-09-28T09:36:51.556Z,8100
2016-09-28T09:37:51.484Z,8124
2016-09-28T09:38:51.331Z,8164
2016-09-28T09:39:51.282Z,8312
2016-09-28T09:40:51.660Z,8528
2016-09-28T09:41:51.089Z,8612
2016-09-28T09:42:51.636Z,8780
2016-09-28T09:43:50.725Z,8956
2016-09-28T09:44:51.352Z,9908
2016-09-28T09:46:23.366Z,12400
2016-09-28T09:46:52.107Z,13080
2016-09-28T09:47:51.849Z,14104
2016-09-28T09:48:51.984Z,13552
2016-09-28T09:49:51.941Z,12708
2016-09-28T09:50:51.992Z,11992
2016-09-28T09:51:51.114Z,11608
2016-09-28T09:52:51.611Z,11360
2016-09-28T09:53:51.942Z,10020
2016-09-28T09:54:51.984Z,8916
2016-09-28T09:55:51.964Z,8648
2016-09-28T09:56:51.720Z,8416
2016-09-28T09:57:51.696Z,8164
2016-09-28T09:58:52.003Z,8332
2016-09-28T09:59:52.039Z,7948
2016-09-28T10:00:52.083Z,8012
2016-09-28T10:01:52.103Z,8156
2016-09-28T10:03:23.805Z,8676
2016-09-28T10:03:52.232Z,8836
2016-09-28T10:04:52.163Z,9328
2016-09-28T10:05:51.685Z,9844
2016-09-28T10:06:52.238Z,9632
2016-09-28T10:07:52.282Z,9324
2016-09-28T10:08:52.301Z,9320
2016-09-28T10:09:52.005Z,9692
2016-09-28T10:10:51.714Z,10316
2016-09-28T10:11:52.466Z,10948
2016-09-28T10:12:51.780Z,11376
2016-09-28T10:13:52.226Z,11548
2016-09-28T10:14:52.148Z,11200
2016-09-28T10:15:52.169Z,12016
2016-09-28T10:16:52.538Z,13104
2016-09-28T10:17:52.538Z,13604
2016-09-28T10:18:52.249Z,13804
2016-09-28T10:19:52.263Z,14136
2016-09-28T10:20:52.343Z,14644
2016-09-28T10:21:52.416Z,14880
2016-09-28T10:22:52.039Z,14904
2016-09-28T10:23:52.444Z,14860
2016-09-28T10:24:52.793Z,14548
2016-09-28T10:25:52.804Z,14032
2016-09-28T10:26:52.455Z,13644
2016-09-28T10:27:52.821Z,13396
2016-09-28T10:28:52.610Z,13040
2016-09-28T10:29:52.846Z,12900
2016-09-28T10:30:52.879Z,14016
2016-09-28T10:31:52.914Z,14948
2016-09-28T10:32:52.707Z,15004
2016-09-28T10:33:52.362Z,15288
2016-09-28T10:34:52.702Z,15872
2016-09-28T10:35:52.710Z,16480
2016-09-28T10:36:52.166Z,16832
2016-09-28T10:37:52.457Z,17184
2016-09-28T10:38:53.090Z,17408
2016-09-28T10:39:53.128Z,17280
2016-09-28T10:40:52.919Z,16576
2016-09-28T10:41:52.924Z,15808
2016-09-28T10:42:52.914Z,15776
2016-09-28T10:43:53.076Z,15840
2016-09-28T10:44:52.740Z,14976
2016-09-28T10:45:53.031Z,14084
2016-09-28T10:46:53.019Z,13684
2016-09-28T10:47:53.040Z,13480
2016-09-28T10:48:52.775Z,13516
2016-09-28T10:49:53.103Z,13728
2016-09-28T10:50:53.444Z,13732
2016-09-28T10:51:53.161Z,13924
2016-09-28T10:52:53.285Z,15004
2016-09-28T10:53:53.333Z,16128
2016-09-28T10:54:53.333Z,16896
2016-09-28T10:55:53.664Z,16192
2016-09-28T10:56:53.642Z,14856
2016-09-28T10:57:53.017Z,14304
2016-09-28T10:58:53.355Z,13488
2016-09-28T10:59:53.404Z,12908
2016-09-28T11:00:53.417Z,13568
2016-09-28T11:01:53.773Z,13876
2016-09-28T11:02:53.773Z,14328
2016-09-28T11:03:53.804Z,14416
2016-09-28T11:04:53.534Z,14444
2016-09-28T11:05:52.925Z,15284
2016-09-28T11:06:53.893Z,15744
2016-09-28T11:07:53.290Z,15744
2016-09-28T11:08:53.638Z,15968
2016-09-28T11:09:53.046Z,16512
2016-09-28T11:10:53.693Z,17056
2016-09-28T11:11:53.415Z,16672
2016-09-28T11:12:53.425Z,15332
2016-09-28T11:13:53.471Z,14384
2016-09-28T11:14:54.118Z,14056
2016-09-28T11:15:54.147Z,14260
2016-09-28T11:16:54.284Z,14344
2016-09-28T11:17:53.583Z,14468
2016-09-28T11:18:54.221Z,14304
2016-09-28T11:19:54.263Z,14172
2016-09-28T11:20:53.980Z,13868
2016-09-28T11:21:54.014Z,13564
2016-09-28T11:22:54.377Z,13888
2016-09-28T11:23:54.046Z,13884
2016-09-28T11:24:54.183Z,13836
2016-09-28T11:25:53.809Z,14624
2016-09-28T11:26:54.206Z,15968
2016-09-28T11:27:54.478Z,16864
2016-09-28T11:28:54.595Z,16640
2016-09-28T11:29:54.235Z,15216
2016-09-28T11:30:54.355Z,15552
2016-09-28T11:31:54.408Z,15680
2016-09-28T11:32:54.324Z,15584
2016-09-28T11:33:54.365Z,15744
2016-09-28T11:34:54.396Z,15584
2016-09-28T11:35:54.302Z,14740
2016-09-28T11:36:54.024Z,14856
2016-09-28T11:37:54.959Z,15104
2016-09-28T11:38:54.953Z,15012
2016-09-28T11:39:54.691Z,14420
2016-09-28T11:40:54.979Z,13052
2016-09-28T11:41:54.420Z,12544
2016-09-28T11:42:54.973Z,12432
2016-09-28T11:43:55.024Z,12960
2016-09-28T11:44:55.075Z,13776
2016-09-28T11:45:54.994Z,14048
2016-09-28T11:46:55.105Z,14088
2016-09-28T11:47:54.777Z,14500
2016-09-28T11:48:55.092Z,14756
2016-09-28T11:49:54.512Z,14420
2016-09-28T11:50:54.842Z,14116
2016-09-28T11:51:54.679Z,14096
2016-09-28T11:52:54.679Z,14080
2016-09-28T11:53:54.935Z,14056
2016-09-28T11:54:54.988Z,13800
2016-09-28T11:55:55.291Z,13388
2016-09-28T11:56:55.033Z,12848
2016-09-28T11:57:55.059Z,12552
2016-09-28T11:58:55.586Z,12472
2016-09-28T11:59:55.093Z,12156
2016-09-28T12:00:55.468Z,11796
2016-09-28T12:01:55.166Z,11596
2016-09-28T12:02:55.486Z,11976
2016-09-28T12:03:55.513Z,12532
2016-09-28T12:04:55.668Z,12956
2016-09-28T12:05:55.005Z,13056
2016-09-28T12:06:55.321Z,13148
2016-09-28T12:07:55.623Z,13448
2016-09-28T12:08:55.657Z,14304
2016-09-28T12:09:55.416Z,15132
2016-09-28T12:10:55.414Z,15016
2016-09-28T12:11:55.525Z,14416
2016-09-28T12:12:55.461Z,13936
2016-09-28T12:13:55.825Z,13956
2016-09-28T12:14:55.872Z,14140
2016-09-28T12:15:55.993Z,13908
2016-09-28T12:16:55.273Z,13576
2016-09-28T12:17:55.713Z,13404
2016-09-28T12:18:55.951Z,13280
2016-09-28T12:19:55.673Z,13332
2016-09-28T12:20:56.011Z,13460
2016-09-28T12:21:55.720Z,13608
2016-09-28T12:22:56.065Z,13708
2016-09-28T12:23:55.803Z,13864
2016-09-28T12:24:56.166Z,14004
2016-09-28T12:25:56.143Z,14096
2016-09-28T12:26:56.211Z,14028
2016-09-28T12:27:55.930Z,14124
2016-09-28T12:28:55.941Z,14048
2016-09-28T12:29:55.989Z,14168
2016-09-28T12:30:55.985Z,14280
2016-09-28T12:31:56.301Z,14136
2016-09-28T12:32:56.347Z,14000
2016-09-28T12:33:56.379Z,13964
2016-09-28T12:34:56.120Z,14056
2016-09-28T12:35:56.444Z,14140
2016-09-28T12:36:55.836Z,14312
2016-09-28T12:37:56.181Z,14468
2016-09-28T12:38:56.222Z,14740
2016-09-28T12:39:56.240Z,14880
2016-09-28T12:40:56.582Z,15020
2016-09-28T12:41:56.628Z,14736
2016-09-28T12:42:56.639Z,14668
2016-09-28T12:43:56.433Z,14504
2016-09-28T12:44:56.720Z,14044
2016-09-28T12:45:56.114Z,13768
2016-09-28T12:46:56.925Z,13592
2016-09-28T12:47:56.808Z,13464
2016-09-28T12:48:56.503Z,13580
2016-09-28T12:49:56.832Z,13580
2016-09-28T12:50:56.934Z,13508
2016-09-28T12:51:56.605Z,13332
2016-09-28T12:52:56.940Z,13216
2016-09-28T12:53:56.695Z,13068
2016-09-28T12:54:57.001Z,12984
2016-09-28T12:55:56.431Z,12948
2016-09-28T12:56:56.750Z,12936
2016-09-28T12:57:57.081Z,13076
2016-09-28T12:58:56.806Z,13140
2016-09-28T12:59:57.242Z,13492
2016-09-28T13:00:56.538Z,13560
2016-09-28T13:01:56.880Z,13312
2016-09-28T13:02:57.222Z,13128
2016-09-28T13:03:56.935Z,13364
2016-09-28T13:04:56.992Z,13048
2016-09-28T13:05:56.988Z,12552
2016-09-28T13:06:57.348Z,12380
2016-09-28T13:07:56.885Z,11844
2016-09-28T13:08:57.444Z,11572
2016-09-28T13:09:56.934Z,11624
2016-09-28T13:10:57.171Z,11588
2016-09-28T13:11:57.179Z,11700
2016-09-28T13:12:57.188Z,12220
2016-09-28T13:13:57.324Z,12856
2016-09-28T13:14:57.572Z,13224
2016-09-28T13:15:57.278Z,13544
2016-09-28T13:16:57.622Z,13464
2016-09-28T13:17:57.742Z,13272
2016-09-28T13:18:57.713Z,12788
2016-09-28T13:19:57.142Z,12492
2016-09-28T13:20:57.760Z,12344
2016-09-28T13:21:57.446Z,12208
2016-09-28T13:22:57.522Z,12192
2016-09-28T13:23:57.520Z,12172
2016-09-28T13:24:57.864Z,12056
2016-09-28T13:25:57.573Z,11872
2016-09-28T13:26:58.075Z,11704
2016-09-28T13:27:58.291Z,11596
2016-09-28T13:28:57.715Z,11484
2016-09-28T13:29:57.693Z,11292
2016-09-28T13:30:58.121Z,11088
2016-09-28T13:31:57.123Z,10916
2016-09-28T13:32:58.071Z,10692
2016-09-28T13:33:57.799Z,10272
2016-09-28T13:34:57.832Z,9624
2016-09-28T13:35:58.214Z,8932
2016-09-28T13:36:58.253Z,8424
2016-09-28T13:37:58.262Z,8152
2016-09-28T13:38:58.157Z,8100
2016-09-28T13:39:58.121Z,8408
2016-09-28T13:40:58.310Z,8756
2016-09-28T13:41:57.754Z,8496
2016-09-28T13:42:58.403Z,8992
2016-09-28T13:43:58.416Z,8836